sensor_id;sensor_type;location;lat;lon;timestamp;P1;durP1;ratioP1;P2;durP2;ratioP2
5995;SDS011;3026;53.612;7.278;2023-03-24T00:00:19;7.57;;;4.10;;
5995;SDS011;3026;53.612;7.278;2023-03-24T00:02:48;9.93;;;4.63;;
5995;SDS011;3026;53.612;7.278;2023-03-24T00:05:17;11.17;;;4.50;;
5995;SDS011;3026;53.612;7.278;2023-03-24T00:07:45;9.80;;;4.47;;
5995;SDS011;3026;53.612;7.278;2023-03-24T00:10:14;10.93;;;4.73;;
5995;SDS011;3026;53.612;7.278;2023-03-24T00:12:45;10.57;;;3.67;;
5995;SDS011;3026;53.612;7.278;2023-03-24T00:15:14;9.73;;;4.80;;
5995;SDS011;3026;53.612;7.278;2023-03-24T00:17:43;10.57;;;4.50;;
5995;SDS011;3026;53.612;7.278;2023-03-24T00:20:12;8.07;;;3.97;;
5995;SDS011;3026;53.612;7.278;2023-03-24T00:22:41;7.33;;;4.20;;
5995;SDS011;3026;53.612;7.278;2023-03-24T00:25:14;7.73;;;3.70;;
5995;SDS011;3026;53.612;7.278;2023-03-24T00:27:41;9.93;;;4.20;;
5995;SDS011;3026;53.612;7.278;2023-03-24T00:30:11;11.00;;;3.90;;
5995;SDS011;3026;53.612;7.278;2023-03-24T00:32:38;11.30;;;3.63;;
5995;SDS011;3026;53.612;7.278;2023-03-24T00:35:06;11.40;;;4.07;;
5995;SDS011;3026;53.612;7.278;2023-03-24T00:37:34;8.10;;;3.83;;
5995;SDS011;3026;53.612;7.278;2023-03-24T00:40:02;8.17;;;3.90;;
5995;SDS011;3026;53.612;7.278;2023-03-24T00:42:33;6.93;;;3.57;;
5995;SDS011;3026;53.612;7.278;2023-03-24T00:45:01;7.13;;;4.00;;
5995;SDS011;3026;53.612;7.278;2023-03-24T00:47:31;4.97;;;3.10;;
5995;SDS011;3026;53.612;7.278;2023-03-24T00:50:02;6.57;;;3.37;;
5995;SDS011;3026;53.612;7.278;2023-03-24T00:52:30;9.33;;;3.93;;
5995;SDS011;3026;53.612;7.278;2023-03-24T00:54:58;6.60;;;3.87;;
5995;SDS011;3026;53.612;7.278;2023-03-24T00:57:27;9.20;;;3.63;;
5995;SDS011;3026;53.612;7.278;2023-03-24T00:59:59;7.77;;;3.93;;
5995;SDS011;3026;53.612;7.278;2023-03-24T01:02:39;7.57;;;3.30;;
5995;SDS011;3026;53.612;7.278;2023-03-24T01:05:08;7.77;;;3.70;;
5995;SDS011;3026;53.612;7.278;2023-03-24T01:07:36;8.17;;;3.90;;
5995;SDS011;3026;53.612;7.278;2023-03-24T01:10:06;6.93;;;4.13;;
5995;SDS011;3026;53.612;7.278;2023-03-24T01:12:35;6.37;;;3.30;;
5995;SDS011;3026;53.612;7.278;2023-03-24T01:15:03;7.43;;;3.57;;
5995;SDS011;3026;53.612;7.278;2023-03-24T01:17:32;6.67;;;3.67;;
5995;SDS011;3026;53.612;7.278;2023-03-24T01:20:01;11.23;;;4.33;;
5995;SDS011;3026;53.612;7.278;2023-03-24T01:22:32;6.73;;;3.60;;
5995;SDS011;3026;53.612;7.278;2023-03-24T01:25:02;8.07;;;3.90;;
5995;SDS011;3026;53.612;7.278;2023-03-24T01:27:29;6.37;;;3.40;;
5995;SDS011;3026;53.612;7.278;2023-03-24T01:29:57;6.67;;;3.50;;
5995;SDS011;3026;53.612;7.278;2023-03-24T01:32:24;8.70;;;3.70;;
5995;SDS011;3026;53.612;7.278;2023-03-24T01:34:51;5.93;;;3.13;;
5995;SDS011;3026;53.612;7.278;2023-03-24T01:37:20;4.73;;;2.97;;
5995;SDS011;3026;53.612;7.278;2023-03-24T01:39:47;6.47;;;3.60;;
5995;SDS011;3026;53.612;7.278;2023-03-24T01:42:15;7.50;;;3.63;;
5995;SDS011;3026;53.612;7.278;2023-03-24T01:44:45;5.87;;;3.20;;
5995;SDS011;3026;53.612;7.278;2023-03-24T01:47:12;6.17;;;2.73;;
5995;SDS011;3026;53.612;7.278;2023-03-24T01:49:41;6.40;;;3.40;;
5995;SDS011;3026;53.612;7.278;2023-03-24T01:52:12;5.97;;;3.27;;
5995;SDS011;3026;53.612;7.278;2023-03-24T01:54:45;5.97;;;3.20;;
5995;SDS011;3026;53.612;7.278;2023-03-24T01:57:16;6.00;;;3.20;;
5995;SDS011;3026;53.612;7.278;2023-03-24T01:59:47;3.93;;;3.27;;
5995;SDS011;3026;53.612;7.278;2023-03-24T02:02:16;4.80;;;3.33;;
5995;SDS011;3026;53.612;7.278;2023-03-24T02:04:47;6.23;;;3.07;;
5995;SDS011;3026;53.612;7.278;2023-03-24T02:07:26;4.80;;;3.10;;
5995;SDS011;3026;53.612;7.278;2023-03-24T02:10:00;4.77;;;3.37;;
5995;SDS011;3026;53.612;7.278;2023-03-24T02:12:30;4.57;;;2.80;;
5995;SDS011;3026;53.612;7.278;2023-03-24T02:14:57;4.90;;;2.70;;
5995;SDS011;3026;53.612;7.278;2023-03-24T02:26:33;5.10;;;3.17;;
5995;SDS011;3026;53.612;7.278;2023-03-24T02:35:52;5.67;;;3.30;;
5995;SDS011;3026;53.612;7.278;2023-03-24T02:38:52;4.77;;;2.60;;
5995;SDS011;3026;53.612;7.278;2023-03-24T02:41:54;8.10;;;3.70;;
5995;SDS011;3026;53.612;7.278;2023-03-24T02:44:33;7.67;;;3.73;;
5995;SDS011;3026;53.612;7.278;2023-03-24T02:47:09;8.77;;;2.83;;
5995;SDS011;3026;53.612;7.278;2023-03-24T02:49:43;4.80;;;3.17;;
5995;SDS011;3026;53.612;7.278;2023-03-24T02:52:16;5.27;;;3.20;;
5995;SDS011;3026;53.612;7.278;2023-03-24T02:54:48;5.67;;;3.17;;
5995;SDS011;3026;53.612;7.278;2023-03-24T02:57:26;3.93;;;2.77;;
5995;SDS011;3026;53.612;7.278;2023-03-24T02:59:57;4.60;;;2.93;;
5995;SDS011;3026;53.612;7.278;2023-03-24T03:02:32;5.07;;;3.30;;
5995;SDS011;3026;53.612;7.278;2023-03-24T03:05:04;3.73;;;2.90;;
5995;SDS011;3026;53.612;7.278;2023-03-24T03:07:38;6.43;;;3.07;;
5995;SDS011;3026;53.612;7.278;2023-03-24T03:10:07;4.87;;;3.03;;
5995;SDS011;3026;53.612;7.278;2023-03-24T03:12:42;4.60;;;3.17;;
5995;SDS011;3026;53.612;7.278;2023-03-24T03:15:13;4.53;;;2.70;;
5995;SDS011;3026;53.612;7.278;2023-03-24T03:17:44;4.63;;;3.13;;
5995;SDS011;3026;53.612;7.278;2023-03-24T03:20:18;3.57;;;2.70;;
5995;SDS011;3026;53.612;7.278;2023-03-24T03:22:47;4.80;;;2.80;;
5995;SDS011;3026;53.612;7.278;2023-03-24T03:25:19;4.13;;;2.63;;
5995;SDS011;3026;53.612;7.278;2023-03-24T03:27:51;3.57;;;2.83;;
5995;SDS011;3026;53.612;7.278;2023-03-24T03:30:21;4.97;;;2.93;;
5995;SDS011;3026;53.612;7.278;2023-03-24T03:32:53;5.70;;;3.60;;
5995;SDS011;3026;53.612;7.278;2023-03-24T03:35:28;4.47;;;3.00;;
5995;SDS011;3026;53.612;7.278;2023-03-24T03:38:05;6.60;;;3.07;;
5995;SDS011;3026;53.612;7.278;2023-03-24T03:40:40;5.97;;;3.17;;
5995;SDS011;3026;53.612;7.278;2023-03-24T03:43:11;4.40;;;2.97;;
5995;SDS011;3026;53.612;7.278;2023-03-24T03:45:37;4.27;;;2.90;;
5995;SDS011;3026;53.612;7.278;2023-03-24T03:48:04;6.53;;;3.13;;
5995;SDS011;3026;53.612;7.278;2023-03-24T03:50:31;4.07;;;2.60;;
5995;SDS011;3026;53.612;7.278;2023-03-24T03:52:59;4.30;;;2.90;;
5995;SDS011;3026;53.612;7.278;2023-03-24T03:55:26;5.50;;;3.00;;
5995;SDS011;3026;53.612;7.278;2023-03-24T03:57:53;3.37;;;2.73;;
5995;SDS011;3026;53.612;7.278;2023-03-24T04:00:22;4.73;;;2.57;;
5995;SDS011;3026;53.612;7.278;2023-03-24T04:05:55;5.97;;;3.40;;
5995;SDS011;3026;53.612;7.278;2023-03-24T04:08:31;3.93;;;2.83;;
5995;SDS011;3026;53.612;7.278;2023-03-24T04:11:13;6.10;;;2.87;;
5995;SDS011;3026;53.612;7.278;2023-03-24T04:14:08;5.23;;;3.00;;
5995;SDS011;3026;53.612;7.278;2023-03-24T04:17:06;3.23;;;2.90;;
5995;SDS011;3026;53.612;7.278;2023-03-24T04:19:45;3.93;;;2.30;;
5995;SDS011;3026;53.612;7.278;2023-03-24T04:22:26;5.33;;;2.20;;
5995;SDS011;3026;53.612;7.278;2023-03-24T04:25:06;5.23;;;1.90;;
5995;SDS011;3026;53.612;7.278;2023-03-24T04:27:42;11.53;;;1.90;;
5995;SDS011;3026;53.612;7.278;2023-03-24T04:30:14;8.23;;;2.10;;
5995;SDS011;3026;53.612;7.278;2023-03-24T04:32:50;6.10;;;2.43;;
5995;SDS011;3026;53.612;7.278;2023-03-24T04:35:24;10.73;;;3.27;;
5995;SDS011;3026;53.612;7.278;2023-03-24T04:37:56;6.80;;;2.43;;
5995;SDS011;3026;53.612;7.278;2023-03-24T04:40:28;8.43;;;2.17;;
5995;SDS011;3026;53.612;7.278;2023-03-24T04:42:58;6.53;;;1.80;;
5995;SDS011;3026;53.612;7.278;2023-03-24T04:45:38;7.70;;;2.47;;
5995;SDS011;3026;53.612;7.278;2023-03-24T04:48:08;7.33;;;2.70;;
5995;SDS011;3026;53.612;7.278;2023-03-24T04:50:38;7.50;;;1.80;;
5995;SDS011;3026;53.612;7.278;2023-03-24T04:53:07;8.07;;;1.97;;
5995;SDS011;3026;53.612;7.278;2023-03-24T04:55:39;8.33;;;2.03;;
5995;SDS011;3026;53.612;7.278;2023-03-24T04:58:16;9.60;;;2.10;;
5995;SDS011;3026;53.612;7.278;2023-03-24T05:00:47;7.53;;;2.37;;
5995;SDS011;3026;53.612;7.278;2023-03-24T05:03:16;9.40;;;1.97;;
5995;SDS011;3026;53.612;7.278;2023-03-24T05:05:46;9.40;;;2.10;;
5995;SDS011;3026;53.612;7.278;2023-03-24T05:08:14;7.77;;;1.73;;
5995;SDS011;3026;53.612;7.278;2023-03-24T05:10:43;7.43;;;1.70;;
5995;SDS011;3026;53.612;7.278;2023-03-24T05:13:10;8.27;;;2.40;;
5995;SDS011;3026;53.612;7.278;2023-03-24T05:15:39;12.50;;;3.33;;
5995;SDS011;3026;53.612;7.278;2023-03-24T05:18:06;12.37;;;2.40;;
5995;SDS011;3026;53.612;7.278;2023-03-24T05:20:35;9.70;;;2.63;;
5995;SDS011;3026;53.612;7.278;2023-03-24T05:23:01;6.30;;;2.00;;
5995;SDS011;3026;53.612;7.278;2023-03-24T05:25:28;14.30;;;1.90;;
5995;SDS011;3026;53.612;7.278;2023-03-24T05:27:55;7.90;;;1.90;;
5995;SDS011;3026;53.612;7.278;2023-03-24T05:30:23;11.60;;;2.50;;
5995;SDS011;3026;53.612;7.278;2023-03-24T05:32:50;8.07;;;2.00;;
5995;SDS011;3026;53.612;7.278;2023-03-24T05:35:17;4.77;;;2.17;;
5995;SDS011;3026;53.612;7.278;2023-03-24T05:37:45;8.33;;;1.63;;
5995;SDS011;3026;53.612;7.278;2023-03-24T05:40:12;9.83;;;2.37;;
5995;SDS011;3026;53.612;7.278;2023-03-24T05:42:40;11.37;;;2.00;;
5995;SDS011;3026;53.612;7.278;2023-03-24T05:45:10;4.73;;;1.90;;
5995;SDS011;3026;53.612;7.278;2023-03-24T05:47:37;5.83;;;1.90;;
5995;SDS011;3026;53.612;7.278;2023-03-24T05:50:04;9.00;;;2.37;;
5995;SDS011;3026;53.612;7.278;2023-03-24T05:52:32;11.67;;;2.57;;
5995;SDS011;3026;53.612;7.278;2023-03-24T05:55:06;11.80;;;2.80;;
5995;SDS011;3026;53.612;7.278;2023-03-24T05:57:35;9.20;;;2.27;;
5995;SDS011;3026;53.612;7.278;2023-03-24T06:00:03;8.33;;;2.33;;
5995;SDS011;3026;53.612;7.278;2023-03-24T06:02:34;11.60;;;2.03;;
5995;SDS011;3026;53.612;7.278;2023-03-24T06:05:01;11.23;;;2.43;;
5995;SDS011;3026;53.612;7.278;2023-03-24T06:07:29;14.53;;;2.50;;
5995;SDS011;3026;53.612;7.278;2023-03-24T06:10:03;13.10;;;3.03;;
5995;SDS011;3026;53.612;7.278;2023-03-24T06:12:35;13.80;;;2.53;;
5995;SDS011;3026;53.612;7.278;2023-03-24T06:15:02;15.13;;;2.40;;
5995;SDS011;3026;53.612;7.278;2023-03-24T06:17:32;10.27;;;2.97;;
5995;SDS011;3026;53.612;7.278;2023-03-24T06:20:01;12.17;;;2.20;;
5995;SDS011;3026;53.612;7.278;2023-03-24T06:22:30;10.30;;;2.63;;
5995;SDS011;3026;53.612;7.278;2023-03-24T06:24:57;10.90;;;2.40;;
5995;SDS011;3026;53.612;7.278;2023-03-24T06:27:30;12.40;;;2.07;;
5995;SDS011;3026;53.612;7.278;2023-03-24T06:30:00;9.73;;;3.00;;
5995;SDS011;3026;53.612;7.278;2023-03-24T06:32:27;9.70;;;3.63;;
5995;SDS011;3026;53.612;7.278;2023-03-24T06:34:54;9.57;;;2.57;;
5995;SDS011;3026;53.612;7.278;2023-03-24T06:37:21;7.70;;;2.40;;
5995;SDS011;3026;53.612;7.278;2023-03-24T06:39:48;13.67;;;2.70;;
5995;SDS011;3026;53.612;7.278;2023-03-24T06:42:16;9.73;;;2.50;;
5995;SDS011;3026;53.612;7.278;2023-03-24T06:44:45;14.33;;;2.63;;
5995;SDS011;3026;53.612;7.278;2023-03-24T06:47:12;11.97;;;3.17;;
5995;SDS011;3026;53.612;7.278;2023-03-24T06:49:38;13.87;;;3.20;;
5995;SDS011;3026;53.612;7.278;2023-03-24T06:52:06;10.37;;;2.40;;
5995;SDS011;3026;53.612;7.278;2023-03-24T06:54:34;11.73;;;3.20;;
5995;SDS011;3026;53.612;7.278;2023-03-24T06:57:01;14.97;;;2.43;;
5995;SDS011;3026;53.612;7.278;2023-03-24T06:59:28;15.23;;;2.73;;
5995;SDS011;3026;53.612;7.278;2023-03-24T07:01:57;7.90;;;2.63;;
5995;SDS011;3026;53.612;7.278;2023-03-24T07:04:23;11.20;;;2.27;;
5995;SDS011;3026;53.612;7.278;2023-03-24T07:06:51;14.80;;;2.70;;
5995;SDS011;3026;53.612;7.278;2023-03-24T07:09:18;11.87;;;2.47;;
5995;SDS011;3026;53.612;7.278;2023-03-24T07:11:45;11.47;;;3.77;;
5995;SDS011;3026;53.612;7.278;2023-03-24T07:14:12;9.87;;;2.33;;
5995;SDS011;3026;53.612;7.278;2023-03-24T07:16:39;13.63;;;3.27;;
5995;SDS011;3026;53.612;7.278;2023-03-24T07:19:10;9.07;;;2.47;;
5995;SDS011;3026;53.612;7.278;2023-03-24T07:21:39;9.57;;;2.67;;
5995;SDS011;3026;53.612;7.278;2023-03-24T07:24:06;11.27;;;2.40;;
5995;SDS011;3026;53.612;7.278;2023-03-24T07:26:33;19.43;;;3.17;;
5995;SDS011;3026;53.612;7.278;2023-03-24T07:29:00;8.07;;;2.47;;
5995;SDS011;3026;53.612;7.278;2023-03-24T07:31:28;9.67;;;2.90;;
5995;SDS011;3026;53.612;7.278;2023-03-24T07:33:56;14.43;;;2.50;;
5995;SDS011;3026;53.612;7.278;2023-03-24T07:36:25;9.90;;;2.57;;
5995;SDS011;3026;53.612;7.278;2023-03-24T07:38:54;14.90;;;3.17;;
5995;SDS011;3026;53.612;7.278;2023-03-24T07:41:21;14.07;;;2.63;;
5995;SDS011;3026;53.612;7.278;2023-03-24T07:43:48;10.10;;;2.70;;
5995;SDS011;3026;53.612;7.278;2023-03-24T07:46:17;12.37;;;2.73;;
5995;SDS011;3026;53.612;7.278;2023-03-24T07:48:44;13.63;;;2.70;;
5995;SDS011;3026;53.612;7.278;2023-03-24T07:51:11;7.63;;;2.57;;
5995;SDS011;3026;53.612;7.278;2023-03-24T07:53:39;9.57;;;2.33;;
5995;SDS011;3026;53.612;7.278;2023-03-24T07:56:09;9.37;;;3.30;;
5995;SDS011;3026;53.612;7.278;2023-03-24T07:58:38;9.10;;;2.70;;
5995;SDS011;3026;53.612;7.278;2023-03-24T08:01:06;9.17;;;3.17;;
5995;SDS011;3026;53.612;7.278;2023-03-24T08:03:34;12.40;;;2.73;;
5995;SDS011;3026;53.612;7.278;2023-03-24T08:06:01;11.13;;;2.97;;
5995;SDS011;3026;53.612;7.278;2023-03-24T08:08:28;8.87;;;2.10;;
5995;SDS011;3026;53.612;7.278;2023-03-24T08:10:57;12.80;;;2.80;;
5995;SDS011;3026;53.612;7.278;2023-03-24T08:13:24;13.13;;;2.40;;
5995;SDS011;3026;53.612;7.278;2023-03-24T08:15:51;16.50;;;3.30;;
5995;SDS011;3026;53.612;7.278;2023-03-24T08:18:18;8.40;;;2.73;;
5995;SDS011;3026;53.612;7.278;2023-03-24T08:20:46;10.23;;;2.80;;
5995;SDS011;3026;53.612;7.278;2023-03-24T08:23:13;11.07;;;2.70;;
5995;SDS011;3026;53.612;7.278;2023-03-24T08:25:40;13.97;;;2.83;;
5995;SDS011;3026;53.612;7.278;2023-03-24T08:28:09;6.43;;;2.00;;
5995;SDS011;3026;53.612;7.278;2023-03-24T08:30:36;11.50;;;2.53;;
5995;SDS011;3026;53.612;7.278;2023-03-24T08:33:03;15.37;;;3.83;;
5995;SDS011;3026;53.612;7.278;2023-03-24T08:35:31;14.37;;;3.97;;
5995;SDS011;3026;53.612;7.278;2023-03-24T08:38:03;9.40;;;2.57;;
5995;SDS011;3026;53.612;7.278;2023-03-24T08:40:30;15.23;;;3.33;;
5995;SDS011;3026;53.612;7.278;2023-03-24T08:42:59;16.90;;;2.53;;
5995;SDS011;3026;53.612;7.278;2023-03-24T08:45:30;16.07;;;3.23;;
5995;SDS011;3026;53.612;7.278;2023-03-24T08:48:02;13.30;;;2.80;;
5995;SDS011;3026;53.612;7.278;2023-03-24T08:50:31;12.23;;;2.77;;
5995;SDS011;3026;53.612;7.278;2023-03-24T08:53:00;10.40;;;2.70;;
5995;SDS011;3026;53.612;7.278;2023-03-24T08:55:28;13.00;;;3.07;;
5995;SDS011;3026;53.612;7.278;2023-03-24T08:57:55;15.40;;;3.63;;
5995;SDS011;3026;53.612;7.278;2023-03-24T09:00:22;13.20;;;3.30;;
5995;SDS011;3026;53.612;7.278;2023-03-24T09:02:51;12.03;;;3.53;;
5995;SDS011;3026;53.612;7.278;2023-03-24T09:05:19;9.43;;;2.50;;
5995;SDS011;3026;53.612;7.278;2023-03-24T09:07:47;17.93;;;3.97;;
5995;SDS011;3026;53.612;7.278;2023-03-24T09:10:15;12.10;;;3.47;;
5995;SDS011;3026;53.612;7.278;2023-03-24T09:12:43;10.83;;;2.43;;
5995;SDS011;3026;53.612;7.278;2023-03-24T09:15:11;9.93;;;2.70;;
5995;SDS011;3026;53.612;7.278;2023-03-24T09:17:39;18.27;;;3.00;;
5995;SDS011;3026;53.612;7.278;2023-03-24T09:20:13;13.00;;;2.97;;
5995;SDS011;3026;53.612;7.278;2023-03-24T09:22:41;14.90;;;2.97;;
5995;SDS011;3026;53.612;7.278;2023-03-24T09:25:11;11.97;;;2.93;;
5995;SDS011;3026;53.612;7.278;2023-03-24T09:27:39;14.40;;;3.07;;
5995;SDS011;3026;53.612;7.278;2023-03-24T09:30:07;14.20;;;3.40;;
5995;SDS011;3026;53.612;7.278;2023-03-24T09:32:35;12.17;;;2.67;;
5995;SDS011;3026;53.612;7.278;2023-03-24T09:35:03;14.70;;;3.40;;
5995;SDS011;3026;53.612;7.278;2023-03-24T09:37:34;12.00;;;2.83;;
5995;SDS011;3026;53.612;7.278;2023-03-24T09:40:05;9.20;;;2.90;;
5995;SDS011;3026;53.612;7.278;2023-03-24T09:42:34;14.40;;;3.37;;
5995;SDS011;3026;53.612;7.278;2023-03-24T09:45:05;15.13;;;3.33;;
5995;SDS011;3026;53.612;7.278;2023-03-24T09:47:38;12.47;;;3.10;;
5995;SDS011;3026;53.612;7.278;2023-03-24T09:50:11;10.37;;;2.67;;
5995;SDS011;3026;53.612;7.278;2023-03-24T09:52:46;16.63;;;3.17;;
5995;SDS011;3026;53.612;7.278;2023-03-24T09:55:16;10.50;;;3.63;;
5995;SDS011;3026;53.612;7.278;2023-03-24T09:57:48;16.90;;;3.13;;
5995;SDS011;3026;53.612;7.278;2023-03-24T10:00:18;13.63;;;2.70;;
5995;SDS011;3026;53.612;7.278;2023-03-24T10:02:48;12.40;;;3.27;;
5995;SDS011;3026;53.612;7.278;2023-03-24T10:05:16;13.53;;;3.53;;
5995;SDS011;3026;53.612;7.278;2023-03-24T10:07:51;16.33;;;4.00;;
5995;SDS011;3026;53.612;7.278;2023-03-24T10:10:27;18.30;;;3.20;;
5995;SDS011;3026;53.612;7.278;2023-03-24T10:13:03;12.67;;;2.90;;
5995;SDS011;3026;53.612;7.278;2023-03-24T10:15:34;11.57;;;2.43;;
5995;SDS011;3026;53.612;7.278;2023-03-24T10:18:14;15.33;;;2.87;;
5995;SDS011;3026;53.612;7.278;2023-03-24T10:20:55;12.87;;;2.80;;
5995;SDS011;3026;53.612;7.278;2023-03-24T10:23:32;10.60;;;2.93;;
5995;SDS011;3026;53.612;7.278;2023-03-24T10:26:07;14.57;;;2.97;;
5995;SDS011;3026;53.612;7.278;2023-03-24T10:28:43;11.93;;;2.80;;
5995;SDS011;3026;53.612;7.278;2023-03-24T10:31:16;12.50;;;3.37;;
5995;SDS011;3026;53.612;7.278;2023-03-24T10:33:50;20.87;;;3.67;;
5995;SDS011;3026;53.612;7.278;2023-03-24T10:36:18;10.07;;;3.13;;
5995;SDS011;3026;53.612;7.278;2023-03-24T10:38:47;14.73;;;3.47;;
5995;SDS011;3026;53.612;7.278;2023-03-24T10:41:17;10.90;;;3.03;;
5995;SDS011;3026;53.612;7.278;2023-03-24T10:43:49;16.87;;;3.37;;
5995;SDS011;3026;53.612;7.278;2023-03-24T10:46:18;17.77;;;2.90;;
5995;SDS011;3026;53.612;7.278;2023-03-24T10:48:47;18.53;;;3.50;;
5995;SDS011;3026;53.612;7.278;2023-03-24T10:51:16;13.13;;;3.00;;
5995;SDS011;3026;53.612;7.278;2023-03-24T10:54:10;18.97;;;3.10;;
5995;SDS011;3026;53.612;7.278;2023-03-24T10:56:38;13.37;;;3.83;;
5995;SDS011;3026;53.612;7.278;2023-03-24T10:59:14;15.33;;;3.20;;
5995;SDS011;3026;53.612;7.278;2023-03-24T11:01:45;13.93;;;3.03;;
5995;SDS011;3026;53.612;7.278;2023-03-24T11:04:13;13.60;;;3.20;;
5995;SDS011;3026;53.612;7.278;2023-03-24T11:06:51;13.50;;;2.90;;
5995;SDS011;3026;53.612;7.278;2023-03-24T11:09:24;12.27;;;4.63;;
5995;SDS011;3026;53.612;7.278;2023-03-24T11:11:51;12.63;;;3.03;;
5995;SDS011;3026;53.612;7.278;2023-03-24T11:14:25;17.13;;;4.33;;
5995;SDS011;3026;53.612;7.278;2023-03-24T11:17:00;14.20;;;2.90;;
5995;SDS011;3026;53.612;7.278;2023-03-24T11:19:33;12.87;;;3.83;;
5995;SDS011;3026;53.612;7.278;2023-03-24T11:22:01;15.40;;;3.57;;
5995;SDS011;3026;53.612;7.278;2023-03-24T11:24:35;11.13;;;2.73;;
5995;SDS011;3026;53.612;7.278;2023-03-24T11:27:12;11.70;;;2.60;;
5995;SDS011;3026;53.612;7.278;2023-03-24T11:29:41;10.57;;;2.90;;
5995;SDS011;3026;53.612;7.278;2023-03-24T11:32:10;14.63;;;3.13;;
5995;SDS011;3026;53.612;7.278;2023-03-24T11:34:43;10.83;;;2.47;;
5995;SDS011;3026;53.612;7.278;2023-03-24T11:37:13;11.83;;;2.70;;
5995;SDS011;3026;53.612;7.278;2023-03-24T11:39:45;9.73;;;2.63;;
5995;SDS011;3026;53.612;7.278;2023-03-24T11:42:42;19.47;;;2.87;;
5995;SDS011;3026;53.612;7.278;2023-03-24T11:45:20;12.13;;;3.07;;
5995;SDS011;3026;53.612;7.278;2023-03-24T11:47:49;11.87;;;3.27;;
5995;SDS011;3026;53.612;7.278;2023-03-24T11:50:18;14.47;;;3.53;;
5995;SDS011;3026;53.612;7.278;2023-03-24T11:52:51;10.20;;;2.83;;
5995;SDS011;3026;53.612;7.278;2023-03-24T11:55:24;13.60;;;2.60;;
5995;SDS011;3026;53.612;7.278;2023-03-24T11:58:17;11.80;;;3.03;;
5995;SDS011;3026;53.612;7.278;2023-03-24T12:01:03;11.90;;;2.73;;
5995;SDS011;3026;53.612;7.278;2023-03-24T12:03:48;8.97;;;2.60;;
5995;SDS011;3026;53.612;7.278;2023-03-24T12:06:32;13.67;;;3.03;;
5995;SDS011;3026;53.612;7.278;2023-03-24T12:09:09;12.13;;;3.00;;
5995;SDS011;3026;53.612;7.278;2023-03-24T12:11:56;12.87;;;2.80;;
5995;SDS011;3026;53.612;7.278;2023-03-24T12:14:37;10.90;;;2.63;;
5995;SDS011;3026;53.612;7.278;2023-03-24T12:17:14;12.80;;;2.60;;
5995;SDS011;3026;53.612;7.278;2023-03-24T12:22:37;12.77;;;3.03;;
5995;SDS011;3026;53.612;7.278;2023-03-24T12:25:26;10.20;;;2.90;;
5995;SDS011;3026;53.612;7.278;2023-03-24T12:28:02;9.23;;;2.30;;
5995;SDS011;3026;53.612;7.278;2023-03-24T12:30:47;11.43;;;3.07;;
5995;SDS011;3026;53.612;7.278;2023-03-24T12:33:28;11.30;;;2.57;;
5995;SDS011;3026;53.612;7.278;2023-03-24T12:36:14;11.27;;;2.90;;
5995;SDS011;3026;53.612;7.278;2023-03-24T12:39:01;7.97;;;2.70;;
5995;SDS011;3026;53.612;7.278;2023-03-24T12:41:37;9.77;;;2.43;;
5995;SDS011;3026;53.612;7.278;2023-03-24T12:44:21;7.93;;;2.20;;
5995;SDS011;3026;53.612;7.278;2023-03-24T12:47:06;7.73;;;2.40;;
5995;SDS011;3026;53.612;7.278;2023-03-24T12:49:48;7.70;;;2.60;;
5995;SDS011;3026;53.612;7.278;2023-03-24T12:55:16;8.10;;;2.00;;
5995;SDS011;3026;53.612;7.278;2023-03-24T12:57:50;15.73;;;2.67;;
5995;SDS011;3026;53.612;7.278;2023-03-24T13:00:25;9.27;;;2.30;;
5995;SDS011;3026;53.612;7.278;2023-03-24T13:02:56;10.50;;;2.50;;
5995;SDS011;3026;53.612;7.278;2023-03-24T13:05:26;13.43;;;2.27;;
5995;SDS011;3026;53.612;7.278;2023-03-24T13:07:57;9.63;;;2.63;;
5995;SDS011;3026;53.612;7.278;2023-03-24T13:10:28;9.00;;;2.43;;
5995;SDS011;3026;53.612;7.278;2023-03-24T13:12:58;9.80;;;2.60;;
5995;SDS011;3026;53.612;7.278;2023-03-24T13:15:32;15.37;;;2.67;;
5995;SDS011;3026;53.612;7.278;2023-03-24T13:18:05;7.13;;;2.00;;
5995;SDS011;3026;53.612;7.278;2023-03-24T13:20:43;7.13;;;2.33;;
5995;SDS011;3026;53.612;7.278;2023-03-24T13:23:30;6.20;;;1.97;;
5995;SDS011;3026;53.612;7.278;2023-03-24T13:26:06;10.93;;;2.20;;
5995;SDS011;3026;53.612;7.278;2023-03-24T13:28:43;7.83;;;2.30;;
5995;SDS011;3026;53.612;7.278;2023-03-24T13:31:19;7.33;;;2.03;;
5995;SDS011;3026;53.612;7.278;2023-03-24T13:33:50;8.90;;;2.23;;
5995;SDS011;3026;53.612;7.278;2023-03-24T13:36:26;8.80;;;2.57;;
5995;SDS011;3026;53.612;7.278;2023-03-24T13:39:00;6.53;;;2.23;;
5995;SDS011;3026;53.612;7.278;2023-03-24T13:41:34;8.60;;;2.17;;
5995;SDS011;3026;53.612;7.278;2023-03-24T13:44:05;8.10;;;2.07;;
5995;SDS011;3026;53.612;7.278;2023-03-24T13:46:36;10.67;;;2.60;;
5995;SDS011;3026;53.612;7.278;2023-03-24T13:49:07;10.97;;;2.27;;
5995;SDS011;3026;53.612;7.278;2023-03-24T13:51:39;7.83;;;2.07;;
5995;SDS011;3026;53.612;7.278;2023-03-24T13:54:11;8.17;;;2.17;;
5995;SDS011;3026;53.612;7.278;2023-03-24T13:56:43;6.13;;;2.20;;
5995;SDS011;3026;53.612;7.278;2023-03-24T13:59:25;9.13;;;2.50;;
5995;SDS011;3026;53.612;7.278;2023-03-24T14:05:09;9.27;;;2.00;;
5995;SDS011;3026;53.612;7.278;2023-03-24T14:07:46;9.43;;;2.23;;
5995;SDS011;3026;53.612;7.278;2023-03-24T14:10:35;13.60;;;2.73;;
5995;SDS011;3026;53.612;7.278;2023-03-24T14:13:04;18.20;;;2.90;;
5995;SDS011;3026;53.612;7.278;2023-03-24T14:15:45;8.43;;;2.57;;
5995;SDS011;3026;53.612;7.278;2023-03-24T14:18:15;7.70;;;2.23;;
5995;SDS011;3026;53.612;7.278;2023-03-24T14:21:07;10.67;;;2.33;;
5995;SDS011;3026;53.612;7.278;2023-03-24T14:23:36;6.20;;;1.80;;
5995;SDS011;3026;53.612;7.278;2023-03-24T14:26:06;6.33;;;2.33;;
5995;SDS011;3026;53.612;7.278;2023-03-24T14:28:38;8.30;;;2.27;;
5995;SDS011;3026;53.612;7.278;2023-03-24T14:31:15;8.63;;;2.17;;
5995;SDS011;3026;53.612;7.278;2023-03-24T14:34:04;8.47;;;2.17;;
5995;SDS011;3026;53.612;7.278;2023-03-24T14:36:40;11.80;;;2.53;;
5995;SDS011;3026;53.612;7.278;2023-03-24T14:39:10;10.43;;;2.27;;
5995;SDS011;3026;53.612;7.278;2023-03-24T14:41:45;6.80;;;1.90;;
5995;SDS011;3026;53.612;7.278;2023-03-24T14:47:22;12.77;;;2.60;;
5995;SDS011;3026;53.612;7.278;2023-03-24T14:49:51;5.67;;;2.17;;
5995;SDS011;3026;53.612;7.278;2023-03-24T14:52:21;8.63;;;1.93;;
5995;SDS011;3026;53.612;7.278;2023-03-24T14:54:52;7.30;;;2.03;;
5995;SDS011;3026;53.612;7.278;2023-03-24T14:57:22;10.97;;;2.30;;
5995;SDS011;3026;53.612;7.278;2023-03-24T14:59:54;10.23;;;2.37;;
5995;SDS011;3026;53.612;7.278;2023-03-24T15:02:28;7.50;;;2.03;;
5995;SDS011;3026;53.612;7.278;2023-03-24T15:05:20;9.37;;;2.10;;
5995;SDS011;3026;53.612;7.278;2023-03-24T15:08:03;10.00;;;2.20;;
5995;SDS011;3026;53.612;7.278;2023-03-24T15:10:38;8.13;;;2.00;;
5995;SDS011;3026;53.612;7.278;2023-03-24T15:16:03;11.77;;;2.47;;
5995;SDS011;3026;53.612;7.278;2023-03-24T15:18:32;11.33;;;3.33;;
5995;SDS011;3026;53.612;7.278;2023-03-24T15:21:00;13.03;;;2.37;;
5995;SDS011;3026;53.612;7.278;2023-03-24T15:23:43;7.77;;;2.00;;
5995;SDS011;3026;53.612;7.278;2023-03-24T15:26:13;8.53;;;2.40;;
5995;SDS011;3026;53.612;7.278;2023-03-24T15:28:42;11.87;;;2.50;;
5995;SDS011;3026;53.612;7.278;2023-03-24T15:31:09;7.70;;;2.20;;
5995;SDS011;3026;53.612;7.278;2023-03-24T15:33:39;12.43;;;3.47;;
5995;SDS011;3026;53.612;7.278;2023-03-24T15:36:12;7.17;;;2.20;;
5995;SDS011;3026;53.612;7.278;2023-03-24T15:38:45;12.23;;;2.60;;
5995;SDS011;3026;53.612;7.278;2023-03-24T15:41:15;9.43;;;2.00;;
5995;SDS011;3026;53.612;7.278;2023-03-24T15:43:45;10.97;;;2.37;;
5995;SDS011;3026;53.612;7.278;2023-03-24T15:46:18;10.10;;;2.93;;
5995;SDS011;3026;53.612;7.278;2023-03-24T15:48:48;5.33;;;2.10;;
5995;SDS011;3026;53.612;7.278;2023-03-24T15:51:16;11.43;;;2.27;;
5995;SDS011;3026;53.612;7.278;2023-03-24T15:54:14;6.93;;;2.37;;
5995;SDS011;3026;53.612;7.278;2023-03-24T15:56:57;7.47;;;2.20;;
5995;SDS011;3026;53.612;7.278;2023-03-24T15:59:41;10.57;;;2.27;;
5995;SDS011;3026;53.612;7.278;2023-03-24T16:02:10;9.73;;;3.03;;
5995;SDS011;3026;53.612;7.278;2023-03-24T16:04:46;15.17;;;2.40;;
5995;SDS011;3026;53.612;7.278;2023-03-24T16:07:20;12.17;;;2.70;;
5995;SDS011;3026;53.612;7.278;2023-03-24T16:09:59;14.37;;;2.90;;